Time;durP1;ratioP1;P1;durP2;ratioP2;P2;SDS_P1;SDS_P2;PMS_P1;PMS_P2;Temp;Humidity;BMP_temperature;BMP_pressure;BME280_temperature;BME280_humidity;BME280_pressure;Samples;Min_cycle;Max_cycle;Signal;HPM_P1;HPM_P2
2021/03/21 00:01:36;;;;;;;4.57;4.17;;;;;;;;;;5109137;28;20955;-41
2021/03/21 00:04:01;;;;;;;4.27;3.97;;;;;;;;;;5108501;28;20603;-41
2021/03/21 00:06:26;;;;;;;4.33;3.93;;;;;;;;;;5108665;28;20596;-42
2021/03/21 00:08:51;;;;;;;4.27;3.87;;;;;;;;;;5107833;28;20207;-41
2021/03/21 00:11:17;;;;;;;4.43;4.10;;;;;;;;;;5108600;28;20182;-42
2021/03/21 00:13:42;;;;;;;4.63;4.30;;;;;;;;;;5108384;28;20690;-42
2021/03/21 00:16:07;;;;;;;4.20;3.90;;;;;;;;;;5108905;28;20217;-42
2021/03/21 00:18:34;;;;;;;4.30;4.00;;;;;;;;;;5108146;28;20192;-42
2021/03/21 00:21:00;;;;;;;4.60;4.20;;;;;;;;;;5108295;28;20180;-42
2021/03/21 00:23:25;;;;;;;4.90;4.50;;;;;;;;;;5108635;28;20599;-42
2021/03/21 00:25:51;;;;;;;4.37;4.00;;;;;;;;;;5108606;28;20663;-42
2021/03/21 00:28:18;;;;;;;4.63;4.23;;;;;;;;;;5107381;28;20200;-42
2021/03/21 00:30:47;;;;;;;3.87;3.67;;;;;;;;;;5100928;28;20181;-42
2021/03/21 00:33:13;;;;;;;4.47;4.07;;;;;;;;;;5108974;28;20932;-42
2021/03/21 00:35:38;;;;;;;4.37;3.83;;;;;;;;;;5108524;28;20603;-43
2021/03/21 00:38:07;;;;;;;4.70;4.30;;;;;;;;;;5107636;28;20606;-42
2021/03/21 00:40:33;;;;;;;4.20;3.90;;;;;;;;;;5108845;28;20228;-41
2021/03/21 00:42:58;;;;;;;4.23;3.73;;;;;;;;;;5108062;28;21310;-49
2021/03/21 00:45:24;;;;;;;4.70;4.40;;;;;;;;;;5108193;28;20249;-42
2021/03/21 00:47:50;;;;;;;4.40;4.00;;;;;;;;;;5108010;28;20182;-41
2021/03/21 00:50:17;;;;;;;4.30;3.90;;;;;;;;;;5108064;28;20596;-42
2021/03/21 00:52:42;;;;;;;3.87;3.67;;;;;;;;;;5108844;28;20162;-42
2021/03/21 00:55:10;;;;;;;3.90;3.60;;;;;;;;;;5108007;28;20644;-41
2021/03/21 00:57:35;;;;;;;4.10;3.70;;;;;;;;;;5107713;28;20194;-41
2021/03/21 01:00:01;;;;;;;4.20;3.80;;;;;;;;;;5108294;28;20602;-42
2021/03/21 01:02:27;;;;;;;5.30;4.07;;;;;;;;;;5108445;28;20177;-42
2021/03/21 01:04:52;;;;;;;3.80;3.50;;;;;;;;;;5108237;28;20199;-42
2021/03/21 01:07:17;;;;;;;4.30;3.87;;;;;;;;;;5108200;28;20264;-50
2021/03/21 01:09:42;;;;;;;4.70;3.63;;;;;;;;;;5090050;28;20204;-42
2021/03/21 01:12:08;;;;;;;4.40;2.97;;;;;;;;;;5108307;28;20169;-42
2021/03/21 01:14:33;;;;;;;3.53;3.33;;;;;;;;;;5108371;28;20164;-43
2021/03/21 01:16:58;;;;;;;4.20;3.90;;;;;;;;;;5107960;28;20631;-43
2021/03/21 01:19:24;;;;;;;3.60;3.40;;;;;;;;;;5108201;28;20176;-43
2021/03/21 01:21:49;;;;;;;4.13;3.93;;;;;;;;;;5109775;28;20646;-41
2021/03/21 01:24:15;;;;;;;3.30;3.10;;;;;;;;;;5112284;28;20318;-42
2021/03/21 01:26:40;;;;;;;4.10;3.80;;;;;;;;;;5111695;28;20822;-42
2021/03/21 01:29:05;;;;;;;3.87;3.57;;;;;;;;;;5111529;28;20643;-42
2021/03/21 01:31:31;;;;;;;3.57;3.37;;;;;;;;;;5111668;28;20169;-42
2021/03/21 01:33:56;;;;;;;3.53;3.30;;;;;;;;;;5111749;28;20174;-43
2021/03/21 01:36:31;;;;;;;4.40;3.63;;;;;;;;;;5111597;28;20175;-42
2021/03/21 01:38:58;;;;;;;3.43;3.23;;;;;;;;;;5110684;28;20210;-42
2021/03/21 01:41:24;;;;;;;3.33;3.13;;;;;;;;;;5110820;28;20624;-42
2021/03/21 01:43:50;;;;;;;4.20;3.90;;;;;;;;;;5111458;28;20895;-43
2021/03/21 01:46:19;;;;;;;4.17;3.87;;;;;;;;;;5111734;28;20929;-42
2021/03/21 01:48:49;;;;;;;4.87;3.50;;;;;;;;;;5111615;28;20209;-41
2021/03/21 01:51:20;;;;;;;3.77;3.20;;;;;;;;;;5111620;28;20693;-42
2021/03/21 01:53:46;;;;;;;4.00;3.60;;;;;;;;;;5111464;28;20597;-42
2021/03/21 01:56:12;;;;;;;3.60;3.30;;;;;;;;;;5111098;28;21224;-42
2021/03/21 01:58:38;;;;;;;4.20;3.80;;;;;;;;;;5111129;28;20612;-42
2021/03/21 02:01:17;;;;;;;4.60;4.17;;;;;;;;;;5111108;28;20664;-41
2021/03/21 02:03:43;;;;;;;6.23;4.00;;;;;;;;;;5108704;28;20603;-42
2021/03/21 02:06:32;;;;;;;4.50;4.13;;;;;;;;;;5110784;28;20596;-41
2021/03/21 02:09:01;;;;;;;3.83;3.47;;;;;;;;;;5110726;28;20209;-41
2021/03/21 02:11:38;;;;;;;4.33;4.03;;;;;;;;;;5110923;28;20600;-41
2021/03/21 02:14:16;;;;;;;4.67;4.27;;;;;;;;;;5110704;28;21148;-41
2021/03/21 02:16:45;;;;;;;3.70;3.50;;;;;;;;;;5110524;28;20597;-41
2021/03/21 02:19:29;;;;;;;4.70;4.10;;;;;;;;;;5109436;28;21058;-42
2021/03/21 02:21:58;;;;;;;4.80;4.20;;;;;;;;;;5110603;28;20606;-42
2021/03/21 02:24:42;;;;;;;4.83;4.53;;;;;;;;;;5111337;28;20660;-43
2021/03/21 02:27:10;;;;;;;6.40;4.77;;;;;;;;;;5095070;28;20603;-42
2021/03/21 02:29:42;;;;;;;5.03;4.40;;;;;;;;;;5110359;28;21249;-42
2021/03/21 02:32:09;;;;;;;5.00;4.50;;;;;;;;;;5110445;28;21224;-42
2021/03/21 02:34:49;;;;;;;5.13;4.60;;;;;;;;;;5109574;28;20609;-42
2021/03/21 02:37:24;;;;;;;5.07;4.73;;;;;;;;;;5110011;28;20591;-42
2021/03/21 02:40:00;;;;;;;4.90;4.50;;;;;;;;;;5108781;28;20757;-42
2021/03/21 02:42:31;;;;;;;5.57;5.10;;;;;;;;;;5109627;28;21151;-42
2021/03/21 02:45:01;;;;;;;4.80;4.33;;;;;;;;;;5109138;28;21233;-42
2021/03/21 02:47:28;;;;;;;5.90;4.83;;;;;;;;;;5101019;28;20607;-41
2021/03/21 02:49:55;;;;;;;5.17;4.70;;;;;;;;;;5109220;28;21262;-42
2021/03/21 02:52:42;;;;;;;5.13;4.63;;;;;;;;;;5110017;28;20598;-41
2021/03/21 02:55:07;;;;;;;5.13;4.73;;;;;;;;;;5109548;28;21086;-42
2021/03/21 02:57:38;;;;;;;6.10;5.40;;;;;;;;;;5110041;28;20587;-42
2021/03/21 03:00:06;;;;;;;5.33;4.93;;;;;;;;;;5110327;28;20177;-42
2021/03/21 03:02:39;;;;;;;6.20;5.63;;;;;;;;;;5110360;28;21125;-41
2021/03/21 03:05:07;;;;;;;5.37;4.93;;;;;;;;;;5109752;28;21142;-41
2021/03/21 03:07:42;;;;;;;5.23;4.77;;;;;;;;;;5110142;28;20604;-42
2021/03/21 03:10:15;;;;;;;4.80;4.40;;;;;;;;;;5109530;28;20622;-42
2021/03/21 03:12:47;;;;;;;6.20;5.70;;;;;;;;;;5109021;28;20648;-42
2021/03/21 03:15:15;;;;;;;6.57;5.70;;;;;;;;;;5109332;28;20609;-41
2021/03/21 03:17:41;;;;;;;6.03;5.53;;;;;;;;;;5109775;28;20606;-42
2021/03/21 03:20:09;;;;;;;5.80;5.10;;;;;;;;;;5109407;28;20599;-42
2021/03/21 03:22:39;;;;;;;5.73;5.23;;;;;;;;;;5109849;28;20638;-42
2021/03/21 03:25:18;;;;;;;5.77;5.27;;;;;;;;;;5100710;28;20611;-42
2021/03/21 03:28:02;;;;;;;5.67;5.17;;;;;;;;;;5109063;28;20615;-42
2021/03/21 03:30:36;;;;;;;5.97;5.00;;;;;;;;;;5109609;28;20667;-42
2021/03/21 03:33:02;;;;;;;8.70;5.83;;;;;;;;;;5108751;28;20643;-42
2021/03/21 03:35:27;;;;;;;6.30;5.67;;;;;;;;;;5109408;28;20928;-42
2021/03/21 03:37:52;;;;;;;6.72;6.03;;;;;;;;;;5109752;28;21134;-42
2021/03/21 03:40:18;;;;;;;6.50;5.33;;;;;;;;;;5109519;28;20203;-42
2021/03/21 03:42:55;;;;;;;6.03;5.40;;;;;;;;;;5109394;28;20404;-42
2021/03/21 03:45:23;;;;;;;10.20;5.17;;;;;;;;;;5109255;28;20610;-42
2021/03/21 03:48:03;;;;;;;6.07;5.57;;;;;;;;;;5107801;28;20587;-42
2021/03/21 03:50:34;;;;;;;6.50;5.30;;;;;;;;;;5117094;27;21005;-43
2021/03/21 03:53:11;;;;;;;6.30;5.40;;;;;;;;;;5108599;28;21386;-42
2021/03/21 03:55:53;;;;;;;7.03;6.50;;;;;;;;;;5108695;28;20645;-42
2021/03/21 03:58:24;;;;;;;6.73;5.20;;;;;;;;;;5103306;28;21034;-41
2021/03/21 04:00:57;;;;;;;6.53;5.93;;;;;;;;;;5108590;28;21011;-42
2021/03/21 04:03:31;;;;;;;5.60;5.10;;;;;;;;;;5108392;28;20622;-42
2021/03/21 04:05:57;;;;;;;5.37;4.97;;;;;;;;;;5109498;28;20612;-42
2021/03/21 04:08:26;;;;;;;5.87;5.33;;;;;;;;;;5108645;28;20650;-42
2021/03/21 04:10:51;;;;;;;5.50;5.10;;;;;;;;;;5108433;28;20607;-42
2021/03/21 04:13:19;;;;;;;6.35;5.75;;;;;;;;;;5108391;28;20616;-43
2021/03/21 04:15:46;;;;;;;6.50;5.90;;;;;;;;;;5109158;28;20174;-42
2021/03/21 04:18:22;;;;;;;6.30;5.70;;;;;;;;;;5108615;28;21150;-43
2021/03/21 04:20:51;;;;;;;6.40;5.80;;;;;;;;;;5109167;28;20603;-43
2021/03/21 04:23:24;;;;;;;6.70;6.10;;;;;;;;;;5108324;28;20591;-42
2021/03/21 04:25:55;;;;;;;5.67;5.20;;;;;;;;;;5107399;28;20619;-42
2021/03/21 04:28:22;;;;;;;7.83;5.60;;;;;;;;;;5108374;28;20639;-42
2021/03/21 04:30:50;;;;;;;6.30;5.80;;;;;;;;;;5108700;28;20648;-42
2021/03/21 04:33:17;;;;;;;5.00;4.60;;;;;;;;;;5108428;28;20602;-42
2021/03/21 04:35:51;;;;;;;6.33;5.73;;;;;;;;;;5108833;28;20596;-42
2021/03/21 04:38:23;;;;;;;6.33;5.73;;;;;;;;;;5107858;28;20697;-42
2021/03/21 04:40:48;;;;;;;6.33;5.73;;;;;;;;;;5107656;28;21268;-42
2021/03/21 04:43:17;;;;;;;6.23;5.60;;;;;;;;;;5108174;28;20741;-42
2021/03/21 04:45:51;;;;;;;7.23;6.40;;;;;;;;;;5107984;28;20598;-43
2021/03/21 04:48:21;;;;;;;6.27;5.77;;;;;;;;;;5107393;28;20644;-42
2021/03/21 04:50:47;;;;;;;8.03;6.30;;;;;;;;;;5106952;28;20955;-42
2021/03/21 04:53:12;;;;;;;7.40;6.70;;;;;;;;;;5107459;28;20592;-42
2021/03/21 04:55:42;;;;;;;5.88;5.35;;;;;;;;;;5105845;28;20669;-42
2021/03/21 04:58:12;;;;;;;6.60;6.00;;;;;;;;;;5107332;28;20174;-43
2021/03/21 05:00:39;;;;;;;6.87;6.27;;;;;;;;;;5111384;28;21314;-43
2021/03/21 05:03:16;;;;;;;6.77;6.10;;;;;;;;;;5110355;28;20611;-42
2021/03/21 05:05:43;;;;;;;6.47;5.90;;;;;;;;;;5111504;28;20683;-42
2021/03/21 05:08:21;;;;;;;8.87;7.20;;;;;;;;;;5111211;28;21048;-42
2021/03/21 05:10:48;;;;;;;7.47;6.67;;;;;;;;;;5111761;28;20595;-42
2021/03/21 05:13:17;;;;;;;8.80;6.90;;;;;;;;;;5111758;28;20595;-42
2021/03/21 05:15:51;;;;;;;7.87;6.90;;;;;;;;;;5110976;28;20606;-42
2021/03/21 05:18:27;;;;;;;7.43;6.73;;;;;;;;;;5110051;28;20634;-42
2021/03/21 05:20:59;;;;;;;7.97;7.17;;;;;;;;;;5110909;28;20604;-42
2021/03/21 05:23:28;;;;;;;8.17;7.47;;;;;;;;;;5104230;28;21391;-42
2021/03/21 05:25:56;;;;;;;9.03;8.13;;;;;;;;;;5110871;28;20599;-42
2021/03/21 05:28:24;;;;;;;9.60;7.70;;;;;;;;;;5110684;28;20646;-42
2021/03/21 05:30:49;;;;;;;9.80;7.70;;;;;;;;;;5111171;28;20607;-42
2021/03/21 05:33:15;;;;;;;7.80;7.10;;;;;;;;;;5111347;28;20596;-42
2021/03/21 05:35:40;;;;;;;9.80;8.67;;;;;;;;;;5111337;28;20166;-42
2021/03/21 05:38:14;;;;;;;10.00;7.53;;;;;;;;;;5110818;28;20169;-42
2021/03/21 05:40:58;;;;;;;9.60;8.60;;;;;;;;;;5110575;28;20617;-42
2021/03/21 05:43:26;;;;;;;8.10;7.30;;;;;;;;;;5104996;28;20638;-42
2021/03/21 05:46:07;;;;;;;9.87;8.77;;;;;;;;;;5110527;28;20968;-43
2021/03/21 05:48:49;;;;;;;9.00;7.97;;;;;;;;;;5105761;28;20642;-43
2021/03/21 05:51:20;;;;;;;10.17;9.20;;;;;;;;;;5110133;28;20714;-43
2021/03/21 05:53:54;;;;;;;9.33;8.40;;;;;;;;;;5110782;28;20596;-42
2021/03/21 05:56:19;;;;;;;8.53;7.67;;;;;;;;;;5103177;28;20728;-43
2021/03/21 05:59:07;;;;;;;9.20;7.78;;;;;;;;;;5107770;28;20641;-42
2021/03/21 06:01:35;;;;;;;11.80;8.83;;;;;;;;;;5106869;28;20181;-42
2021/03/21 06:04:19;;;;;;;9.07;8.27;;;;;;;;;;5109579;28;20599;-42
2021/03/21 06:07:03;;;;;;;9.53;8.53;;;;;;;;;;5102151;28;20701;-42
2021/03/21 06:09:36;;;;;;;9.90;8.90;;;;;;;;;;5103449;28;20646;-43
2021/03/21 06:12:18;;;;;;;11.13;9.00;;;;;;;;;;5107533;28;20578;-43
2021/03/21 06:15:02;;;;;;;9.70;8.10;;;;;;;;;;5107072;28;20717;-42
2021/03/21 06:17:45;;;;;;;10.27;9.27;;;;;;;;;;5103114;28;20592;-42
2021/03/21 06:20:13;;;;;;;11.60;9.33;;;;;;;;;;5107061;28;20703;-43
2021/03/21 06:22:53;;;;;;;10.43;9.33;;;;;;;;;;5100780;28;20603;-43
2021/03/21 06:25:28;;;;;;;11.73;10.20;;;;;;;;;;5107512;28;20606;-43
2021/03/21 06:27:57;;;;;;;10.23;9.20;;;;;;;;;;5109255;28;20595;-42
2021/03/21 06:30:40;;;;;;;10.50;9.43;;;;;;;;;;5109781;28;21044;-42
2021/03/21 06:33:18;;;;;;;10.90;9.80;;;;;;;;;;5103820;28;20602;-43
2021/03/21 06:35:58;;;;;;;10.53;9.53;;;;;;;;;;5110023;28;21183;-42
2021/03/21 06:38:23;;;;;;;11.03;9.93;;;;;;;;;;5106346;28;20603;-42
2021/03/21 06:40:54;;;;;;;10.40;9.40;;;;;;;;;;5110322;28;21035;-42
2021/03/21 06:43:35;;;;;;;12.00;10.80;;;;;;;;;;5108667;28;20181;-42
2021/03/21 06:46:02;;;;;;;11.03;9.93;;;;;;;;;;5109721;28;20600;-42
2021/03/21 06:48:39;;;;;;;11.87;10.30;;;;;;;;;;5101585;28;20665;-42
2021/03/21 06:51:14;;;;;;;15.23;11.27;;;;;;;;;;5108543;27;20606;-42
2021/03/21 06:53:52;;;;;;;11.30;10.30;;;;;;;;;;5107444;28;20615;-43
2021/03/21 06:56:32;;;;;;;10.83;9.87;;;;;;;;;;5102942;28;20651;-43
2021/03/21 06:59:16;;;;;;;13.33;10.03;;;;;;;;;;5109288;28;20606;-43
2021/03/21 07:01:48;;;;;;;13.20;10.67;;;;;;;;;;5105373;28;20618;-41
2021/03/21 07:04:32;;;;;;;13.00;11.10;;;;;;;;;;5105893;28;20986;-41
2021/03/21 07:07:17;;;;;;;11.13;10.07;;;;;;;;;;5108166;28;20687;-42
2021/03/21 07:09:45;;;;;;;12.10;10.90;;;;;;;;;;5055573;28;21268;-41
2021/03/21 07:12:23;;;;;;;12.17;10.90;;;;;;;;;;5107661;28;21310;-43
2021/03/21 07:15:26;;;;;;;13.40;11.23;;;;;;;;;;5108615;28;20607;-42
2021/03/21 07:18:09;;;;;;;11.70;10.50;;;;;;;;;;5005234;28;20615;-42
2021/03/21 07:20:43;;;;;;;11.13;9.87;;;;;;;;;;5002051;28;20600;-42
2021/03/21 07:23:10;;;;;;;11.10;9.90;;;;;;;;;;5069216;28;20957;-41
2021/03/21 07:25:53;;;;;;;13.27;11.87;;;;;;;;;;5107562;27;21224;-42
2021/03/21 07:28:24;;;;;;;11.87;10.67;;;;;;;;;;5106788;28;20792;-42
2021/03/21 07:30:58;;;;;;;12.47;11.27;;;;;;;;;;5107881;28;20592;-42
2021/03/21 07:33:28;;;;;;;11.60;10.40;;;;;;;;;;5102032;28;20605;-42
2021/03/21 07:35:55;;;;;;;11.73;10.57;;;;;;;;;;5093908;28;20670;-41
2021/03/21 07:38:42;;;;;;;13.37;12.00;;;;;;;;;;5103520;28;20711;-41
2021/03/21 07:41:16;;;;;;;12.67;11.37;;;;;;;;;;5107016;28;20691;-43
2021/03/21 07:44:05;;;;;;;14.60;11.73;;;;;;;;;;5088025;28;20600;-41
2021/03/21 07:46:49;;;;;;;12.33;11.20;;;;;;;;;;5104594;28;20596;-43
2021/03/21 07:49:32;;;;;;;13.50;12.20;;;;;;;;;;5102443;28;20655;-41
2021/03/21 07:52:04;;;;;;;11.17;10.10;;;;;;;;;;5096044;28;20648;-42
2021/03/21 07:54:48;;;;;;;11.40;10.30;;;;;;;;;;5105010;28;20642;-42
2021/03/21 07:57:16;;;;;;;12.50;11.20;;;;;;;;;;5106155;28;20680;-42
2021/03/21 07:59:42;;;;;;;11.60;10.50;;;;;;;;;;5102795;28;20631;-42
2021/03/21 08:02:12;;;;;;;12.10;11.10;;;;;;;;;;5106370;28;21103;-41
2021/03/21 08:04:48;;;;;;;11.53;10.43;;;;;;;;;;5107192;28;20181;-41
2021/03/21 08:07:26;;;;;;;13.83;10.97;;;;;;;;;;5106557;28;20603;-42
2021/03/21 08:09:51;;;;;;;11.53;10.43;;;;;;;;;;5110107;27;20650;-42
2021/03/21 08:12:19;;;;;;;11.63;10.53;;;;;;;;;;5114612;27;20591;-42
2021/03/21 08:14:46;;;;;;;11.10;10.10;;;;;;;;;;5085325;28;20542;-42
2021/03/21 08:17:20;;;;;;;11.17;10.07;;;;;;;;;;5107769;28;21318;-42
2021/03/21 08:19:45;;;;;;;10.77;9.67;;;;;;;;;;5099422;28;20591;-41
2021/03/21 08:22:16;;;;;;;10.50;9.50;;;;;;;;;;5107978;28;20603;-43
2021/03/21 08:24:43;;;;;;;10.10;9.20;;;;;;;;;;5104496;28;20181;-42
2021/03/21 08:27:20;;;;;;;10.70;9.73;;;;;;;;;;5104089;28;21174;-41
2021/03/21 08:29:59;;;;;;;10.27;9.37;;;;;;;;;;5106675;28;21244;-42
2021/03/21 08:32:26;;;;;;;11.00;9.93;;;;;;;;;;5107205;28;21283;-43
2021/03/21 08:34:51;;;;;;;10.70;9.63;;;;;;;;;;5102035;27;20634;-41
2021/03/21 08:37:17;;;;;;;10.10;9.18;;;;;;;;;;5104065;28;21340;-43
2021/03/21 08:39:44;;;;;;;10.13;9.13;;;;;;;;;;5099508;28;20175;-49
2021/03/21 08:42:29;;;;;;;10.13;9.00;;;;;;;;;;5106218;28;20209;-46
2021/03/21 08:45:03;;;;;;;9.83;8.93;;;;;;;;;;5106431;28;20649;-43
2021/03/21 08:47:29;;;;;;;9.80;9.00;;;;;;;;;;5107394;28;20622;-43
2021/03/21 08:49:56;;;;;;;9.93;9.00;;;;;;;;;;5106391;28;20695;-40
2021/03/21 08:52:29;;;;;;;9.47;8.57;;;;;;;;;;5107536;28;20170;-43
2021/03/21 08:54:54;;;;;;;9.33;8.43;;;;;;;;;;5107010;28;20729;-42
2021/03/21 08:57:30;;;;;;;9.47;8.67;;;;;;;;;;5107143;28;20637;-42
2021/03/21 09:00:12;;;;;;;8.63;7.90;;;;;;;;;;5107338;28;20187;-41
2021/03/21 09:02:38;;;;;;;9.37;8.57;;;;;;;;;;5107446;28;20611;-41
2021/03/21 09:05:03;;;;;;;9.00;8.30;;;;;;;;;;5107006;28;20597;-42
2021/03/21 09:07:30;;;;;;;7.97;7.37;;;;;;;;;;5107409;28;20187;-41
2021/03/21 09:10:21;;;;;;;9.10;8.30;;;;;;;;;;5106342;28;20207;-41
2021/03/21 09:12:48;;;;;;;8.50;7.70;;;;;;;;;;5101347;28;21159;-43
2021/03/21 09:15:16;;;;;;;30.77;20.33;;;;;;;;;;5099601;28;20608;-42
2021/03/21 09:17:41;;;;;;;15.00;12.07;;;;;;;;;;5107365;28;20915;-42
2021/03/21 09:20:06;;;;;;;11.82;10.70;;;;;;;;;;5106917;28;20662;-42
2021/03/21 09:22:37;;;;;;;9.53;8.53;;;;;;;;;;5099271;28;20170;-43
2021/03/21 09:25:02;;;;;;;9.67;8.87;;;;;;;;;;5107072;28;20327;-41
2021/03/21 09:27:36;;;;;;;8.37;7.67;;;;;;;;;;5106966;28;20610;-43
2021/03/21 09:30:04;;;;;;;8.43;7.70;;;;;;;;;;5106356;28;20201;-42
2021/03/21 09:32:30;;;;;;;8.20;7.53;;;;;;;;;;5106719;28;20639;-42
2021/03/21 09:35:14;;;;;;;8.03;7.37;;;;;;;;;;5106510;28;20983;-42
2021/03/21 09:37:41;;;;;;;8.57;7.87;;;;;;;;;;5107378;28;20598;-42
2021/03/21 09:40:24;;;;;;;9.67;8.77;;;;;;;;;;5106652;28;20634;-42
2021/03/21 09:42:51;;;;;;;9.40;8.40;;;;;;;;;;5108564;28;20968;-44
2021/03/21 09:45:16;;;;;;;13.30;12.10;;;;;;;;;;5109961;28;20594;-43
2021/03/21 09:47:47;;;;;;;10.33;9.40;;;;;;;;;;5110687;28;20612;-43
2021/03/21 09:50:15;;;;;;;9.20;8.40;;;;;;;;;;5110230;28;20938;-42
2021/03/21 09:52:42;;;;;;;9.80;9.00;;;;;;;;;;5105979;28;20603;-43
2021/03/21 09:55:26;;;;;;;8.40;7.70;;;;;;;;;;5108342;28;20735;-43
2021/03/21 09:57:54;;;;;;;9.70;8.80;;;;;;;;;;5110870;28;20654;-42
2021/03/21 10:00:25;;;;;;;8.90;8.10;;;;;;;;;;5110046;28;20705;-43
2021/03/21 10:03:04;;;;;;;8.03;7.43;;;;;;;;;;5110629;28;20611;-41
2021/03/21 10:05:48;;;;;;;8.30;7.70;;;;;;;;;;5102825;28;20578;-41
2021/03/21 10:08:31;;;;;;;8.67;7.87;;;;;;;;;;5110107;28;20962;-41
2021/03/21 10:10:58;;;;;;;9.07;8.27;;;;;;;;;;5110045;28;20621;-41
2021/03/21 10:13:32;;;;;;;7.93;7.33;;;;;;;;;;5109990;28;20697;-41
2021/03/21 10:16:07;;;;;;;8.70;7.90;;;;;;;;;;5109963;28;20601;-42
2021/03/21 10:18:42;;;;;;;7.80;7.00;;;;;;;;;;5102652;28;21179;-41
2021/03/21 10:21:07;;;;;;;8.23;7.40;;;;;;;;;;5109795;28;21166;-41
2021/03/21 10:23:47;;;;;;;7.33;6.73;;;;;;;;;;5110301;28;20606;-44
2021/03/21 10:26:13;;;;;;;8.37;7.67;;;;;;;;;;5109255;28;20183;-43
2021/03/21 10:28:43;;;;;;;7.20;6.60;;;;;;;;;;5110003;28;20695;-42
2021/03/21 10:31:26;;;;;;;8.00;7.30;;;;;;;;;;5109233;28;20630;-43
2021/03/21 10:33:53;;;;;;;7.67;6.97;;;;;;;;;;5106080;28;20690;-43
2021/03/21 10:36:37;;;;;;;8.60;7.70;;;;;;;;;;5108977;28;20773;-43
2021/03/21 10:39:02;;;;;;;8.00;7.20;;;;;;;;;;5109582;28;20600;-42
2021/03/21 10:42:03;;;;;;;9.47;8.67;;;;;;;;;;5108180;28;20633;-42
2021/03/21 10:44:31;;;;;;;9.10;8.10;;;;;;;;;;5041642;28;20263;-43
2021/03/21 10:46:57;;;;;;;8.57;7.87;;;;;;;;;;5096679;28;20593;-42
2021/03/21 10:49:41;;;;;;;8.50;7.80;;;;;;;;;;5108085;28;20646;-41
2021/03/21 10:52:23;;;;;;;8.83;8.13;;;;;;;;;;5108810;28;20598;-41
2021/03/21 10:54:48;;;;;;;9.10;8.30;;;;;;;;;;5100976;28;20635;-42
2021/03/21 10:57:22;;;;;;;9.40;8.50;;;;;;;;;;5108788;28;20619;-41
2021/03/21 11:00:07;;;;;;;10.03;9.00;;;;;;;;;;5104775;28;20169;-43
2021/03/21 11:02:33;;;;;;;9.73;8.90;;;;;;;;;;5090010;28;20655;-42
2021/03/21 11:05:00;;;;;;;9.00;8.20;;;;;;;;;;5109163;28;21218;-43
2021/03/21 11:07:25;;;;;;;9.63;8.83;;;;;;;;;;5108234;28;20291;-42
2021/03/21 11:09:58;;;;;;;9.73;8.83;;;;;;;;;;5108449;28;20855;-42
2021/03/21 11:12:37;;;;;;;11.10;10.00;;;;;;;;;;5108469;28;20172;-43
2021/03/21 11:15:16;;;;;;;10.73;9.70;;;;;;;;;;5102444;28;20588;-44
2021/03/21 11:17:42;;;;;;;11.63;10.43;;;;;;;;;;5108828;28;20633;-43
2021/03/21 11:20:27;;;;;;;12.17;10.60;;;;;;;;;;5108383;28;20727;-40
2021/03/21 11:22:52;;;;;;;22.03;14.60;;;;;;;;;;5103989;28;20214;-41
2021/03/21 11:25:29;;;;;;;16.60;12.50;;;;;;;;;;5108547;28;21281;-41
2021/03/21 11:27:54;;;;;;;12.50;10.83;;;;;;;;;;5105504;28;20199;-42
2021/03/21 11:30:27;;;;;;;15.40;9.75;;;;;;;;;;5103528;28;20754;-43
2021/03/21 11:32:52;;;;;;;10.97;9.87;;;;;;;;;;5103826;28;20415;-45
2021/03/21 11:35:29;;;;;;;10.07;9.00;;;;;;;;;;5101883;28;21171;-42
2021/03/21 11:37:55;;;;;;;10.93;9.00;;;;;;;;;;5102513;28;20169;-43
2021/03/21 11:40:39;;;;;;;7.80;7.10;;;;;;;;;;5107117;28;20674;-42
2021/03/21 11:43:16;;;;;;;11.83;10.70;;;;;;;;;;5099879;28;20622;-43
2021/03/21 11:45:42;;;;;;;10.17;8.40;;;;;;;;;;5107305;28;20668;-42
2021/03/21 11:48:10;;;;;;;8.83;7.17;;;;;;;;;;5099821;28;20606;-42
2021/03/21 11:50:36;;;;;;;7.37;6.67;;;;;;;;;;5106663;28;20226;-42
2021/03/21 11:53:03;;;;;;;5.70;5.10;;;;;;;;;;5107429;28;20584;-41
2021/03/21 11:55:35;;;;;;;4.87;4.47;;;;;;;;;;5106475;28;20653;-42
2021/03/21 11:58:10;;;;;;;8.90;3.57;;;;;;;;;;5104542;28;20596;-42
2021/03/21 12:00:36;;;;;;;6.33;3.90;;;;;;;;;;5101672;28;20690;-43
2021/03/21 12:03:04;;;;;;;5.37;3.00;;;;;;;;;;5089897;28;21152;-42
2021/03/21 12:05:34;;;;;;;6.63;3.10;;;;;;;;;;5107050;28;20592;-42
2021/03/21 12:08:08;;;;;;;4.20;2.90;;;;;;;;;;5103131;28;21205;-43
2021/03/21 12:10:38;;;;;;;5.43;3.00;;;;;;;;;;5106088;28;21240;-42
2021/03/21 12:13:22;;;;;;;3.83;2.80;;;;;;;;;;5106175;28;20646;-42
2021/03/21 12:15:47;;;;;;;5.87;3.00;;;;;;;;;;5098121;28;20595;-43
2021/03/21 12:18:18;;;;;;;11.70;3.60;;;;;;;;;;5107348;28;21425;-43
2021/03/21 12:21:16;;;;;;;6.83;3.27;;;;;;;;;;5106499;28;20961;-43
2021/03/21 12:23:56;;;;;;;5.80;2.90;;;;;;;;;;5050174;28;20594;-43
2021/03/21 12:26:47;;;;;;;10.60;3.80;;;;;;;;;;5104824;28;20624;-43
2021/03/21 12:29:22;;;;;;;7.57;3.20;;;;;;;;;;5100261;27;20644;-43
2021/03/21 12:31:47;;;;;;;8.77;3.30;;;;;;;;;;5099812;28;20587;-43
2021/03/21 12:34:31;;;;;;;13.83;3.80;;;;;;;;;;5104855;28;20610;-42
2021/03/21 12:37:11;;;;;;;11.00;3.60;;;;;;;;;;5100673;28;20228;-43
2021/03/21 12:39:40;;;;;;;6.20;3.93;;;;;;;;;;5100257;28;20605;-41
2021/03/21 12:42:24;;;;;;;8.80;4.03;;;;;;;;;;5100946;28;21239;-41
2021/03/21 12:45:04;;;;;;;8.80;3.80;;;;;;;;;;5099119;28;20622;-41
2021/03/21 12:47:33;;;;;;;15.47;5.03;;;;;;;;;;5101336;28;20789;-41
2021/03/21 12:49:58;;;;;;;9.90;3.67;;;;;;;;;;5103241;28;21177;-42
2021/03/21 12:52:25;;;;;;;12.20;4.37;;;;;;;;;;5104119;28;20613;-42
2021/03/21 12:54:51;;;;;;;7.90;3.97;;;;;;;;;;5104062;28;20218;-43
2021/03/21 12:57:16;;;;;;;8.27;4.33;;;;;;;;;;5102448;28;20601;-43
2021/03/21 12:59:44;;;;;;;11.60;4.70;;;;;;;;;;5104336;28;21176;-43
2021/03/21 13:02:29;;;;;;;14.47;5.97;;;;;;;;;;5104334;28;20767;-42
2021/03/21 13:04:55;;;;;;;11.23;5.27;;;;;;;;;;5101458;28;20587;-43
2021/03/21 13:07:21;;;;;;;13.70;4.90;;;;;;;;;;5104370;28;20599;-43
2021/03/21 13:09:46;;;;;;;9.73;4.40;;;;;;;;;;5093659;28;20284;-43
2021/03/21 13:12:12;;;;;;;13.63;6.97;;;;;;;;;;5100460;28;21532;-43
2021/03/21 13:14:37;;;;;;;10.03;4.80;;;;;;;;;;5103858;28;20173;-43
2021/03/21 13:17:03;;;;;;;13.43;6.00;;;;;;;;;;5103657;28;20174;-43
2021/03/21 13:19:28;;;;;;;13.30;4.73;;;;;;;;;;5106577;28;20181;-43
2021/03/21 13:21:53;;;;;;;10.18;4.50;;;;;;;;;;5107866;28;20946;-43
2021/03/21 13:24:19;;;;;;;8.50;4.10;;;;;;;;;;5108365;28;20650;-49
2021/03/21 13:26:44;;;;;;;13.65;4.35;;;;;;;;;;5108869;28;20183;-42
2021/03/21 13:29:09;;;;;;;9.63;4.47;;;;;;;;;;5107725;28;20259;-42
2021/03/21 13:31:34;;;;;;;7.30;3.77;;;;;;;;;;5108260;28;20184;-42
2021/03/21 13:33:59;;;;;;;8.97;4.40;;;;;;;;;;5104494;28;20185;-42
2021/03/21 13:36:25;;;;;;;11.40;4.70;;;;;;;;;;5107121;28;20211;-43
2021/03/21 13:38:51;;;;;;;14.87;4.30;;;;;;;;;;5105469;28;20249;-42
2021/03/21 13:41:16;;;;;;;12.07;4.20;;;;;;;;;;5106268;28;20272;-42
2021/03/21 13:43:41;;;;;;;12.33;4.63;;;;;;;;;;5102049;28;20601;-42
2021/03/21 13:46:06;;;;;;;11.70;4.90;;;;;;;;;;5107833;28;21474;-42
2021/03/21 13:48:32;;;;;;;11.60;4.00;;;;;;;;;;5107823;28;20209;-42
2021/03/21 13:50:58;;;;;;;17.80;4.13;;;;;;;;;;5105020;27;20192;-42
2021/03/21 13:53:29;;;;;;;13.60;5.10;;;;;;;;;;5108687;27;20189;-42
2021/03/21 13:55:55;;;;;;;10.77;4.40;;;;;;;;;;5104504;28;20441;-41
2021/03/21 13:58:20;;;;;;;10.37;4.90;;;;;;;;;;5107726;28;20587;-42
2021/03/21 14:00:45;;;;;;;7.33;4.30;;;;;;;;;;5106581;28;20746;-44
2021/03/21 14:03:11;;;;;;;13.93;4.57;;;;;;;;;;5103713;28;20175;-41
2021/03/21 14:05:36;;;;;;;15.43;3.97;;;;;;;;;;5107482;28;20665;-41
2021/03/21 14:08:02;;;;;;;9.17;4.57;;;;;;;;;;5106099;28;20170;-41
2021/03/21 14:10:30;;;;;;;9.67;4.30;;;;;;;;;;5104872;27;20200;-41
2021/03/21 14:12:55;;;;;;;9.47;4.80;;;;;;;;;;5107669;28;20732;-41
2021/03/21 14:15:21;;;;;;;13.47;5.30;;;;;;;;;;5109346;27;20687;-41
2021/03/21 14:17:48;;;;;;;9.53;4.60;;;;;;;;;;5104163;28;20173;-42
2021/03/21 14:20:13;;;;;;;10.43;5.40;;;;;;;;;;5106027;28;20606;-42
2021/03/21 14:22:39;;;;;;;10.60;5.17;;;;;;;;;;5104356;27;20606;-42
2021/03/21 14:25:05;;;;;;;11.93;4.37;;;;;;;;;;5107606;27;20636;-42
2021/03/21 14:27:30;;;;;;;13.07;4.90;;;;;;;;;;5094998;27;20189;-42
2021/03/21 14:29:55;;;;;;;8.73;4.63;;;;;;;;;;5106548;27;20672;-42
2021/03/21 14:32:20;;;;;;;10.48;4.35;;;;;;;;;;5106789;28;20173;-42
2021/03/21 14:34:46;;;;;;;10.30;4.87;;;;;;;;;;5097491;28;20172;-50
2021/03/21 14:37:11;;;;;;;9.20;4.70;;;;;;;;;;5106276;28;20263;-42
2021/03/21 14:39:36;;;;;;;9.70;4.77;;;;;;;;;;5104874;28;20625;-42
2021/03/21 14:42:01;;;;;;;7.50;4.77;;;;;;;;;;5104935;28;20184;-41
2021/03/21 14:44:26;;;;;;;12.33;4.90;;;;;;;;;;5106343;28;20326;-42
2021/03/21 14:46:52;;;;;;;11.73;4.73;;;;;;;;;;5106802;28;20177;-42
2021/03/21 14:49:17;;;;;;;9.18;4.65;;;;;;;;;;5100828;28;20275;-43
2021/03/21 14:51:42;;;;;;;14.73;4.80;;;;;;;;;;5103450;28;20206;-43
2021/03/21 14:54:07;;;;;;;12.30;5.40;;;;;;;;;;5106136;28;20262;-42
2021/03/21 14:56:32;;;;;;;11.50;5.17;;;;;;;;;;5101067;28;20467;-43
2021/03/21 14:58:57;;;;;;;10.00;3.70;;;;;;;;;;5105871;28;20178;-43